Aiken, Texas
Current Conditions -  °F | °C
As of 5:15 PM on Wednesday 26 Nov 2014 (Local Time) from KPVW Reporting Station
Clear Clear  
Wind Chill: 50°   Ceiling: Unl
Heat Index: 50°   Visibility: 10mi
Dew Point: 25°   Wind: 0mph
Humidity: 37%   Direction: NA
Pressure: 30.27"   Gusts: NA
Location:  34.14°N, 101.53°W
Report Text: KPVW 262315Z AUTO 00000KT 10SM CLR 10/M04 A3027 RMK AO2 T01001040
Loading
Personal Weather Stations






























Interactive Weather Map New forecast layout! Learn more

10-Day Weather Forecast

Advertisements
Track Severe Weather on mobile